Time;durP1;ratioP1;P1;durP2;ratioP2;P2;SDS_P1;SDS_P2;PMS_P1;PMS_P2;Temp;Humidity;BMP_temperature;BMP_pressure;BME280_temperature;BME280_humidity;BME280_pressure;Samples;Min_cycle;Max_cycle;Signal;HPM_P1;HPM_P2
2023/12/08 00:01:53;;;;;;;52.40;23.23;;;1.00;99.90;;;;;;5053589;28;20025;-93
2023/12/08 00:04:19;;;;;;;51.13;22.02;;;1.00;99.90;;;;;;5056621;28;20173;-94
2023/12/08 00:06:49;;;;;;;53.15;22.27;;;1.00;99.90;;;;;;5054990;28;20029;-95
2023/12/08 00:09:15;;;;;;;56.60;22.13;;;1.00;99.90;;;;;;5057430;28;20025;-93
2023/12/08 00:11:41;;;;;;;55.55;22.17;;;1.10;99.90;;;;;;5052298;28;20025;-93
2023/12/08 00:14:06;;;;;;;45.60;20.17;;;1.10;99.90;;;;;;5053535;28;20039;-93
2023/12/08 00:16:35;;;;;;;45.03;19.05;;;1.10;99.90;;;;;;5055418;28;20033;-94
2023/12/08 00:19:00;;;;;;;60.00;23.95;;;1.10;99.90;;;;;;5050311;28;20029;-92
2023/12/08 00:21:26;;;;;;;52.03;20.30;;;1.00;99.90;;;;;;5052551;28;20036;-93
2023/12/08 00:23:53;;;;;;;50.58;22.98;;;1.00;99.90;;;;;;5051626;28;20025;-92
2023/12/08 00:26:18;;;;;;;47.25;19.70;;;1.00;99.90;;;;;;5053216;28;20025;-93
2023/12/08 00:28:44;;;;;;;59.50;25.25;;;0.90;99.90;;;;;;5050296;28;20085;-91
2023/12/08 00:31:10;;;;;;;54.58;23.25;;;1.00;99.90;;;;;;5055985;28;20045;-92
2023/12/08 00:33:36;;;;;;;55.75;22.88;;;0.80;99.90;;;;;;5065736;28;20050;-94
2023/12/08 00:36:13;;;;;;;55.67;23.20;;;0.90;99.90;;;;;;5061892;28;20017;-92
2023/12/08 00:38:39;;;;;;;60.42;24.50;;;0.90;99.90;;;;;;5046296;28;20020;-93
2023/12/08 00:41:04;;;;;;;47.17;22.17;;;0.90;99.90;;;;;;5056746;28;20457;-92
2023/12/08 00:43:30;;;;;;;59.22;22.98;;;0.90;99.90;;;;;;5055027;28;20001;-94
2023/12/08 00:45:57;;;;;;;52.63;22.65;;;1.00;99.90;;;;;;5067552;28;20089;-94
2023/12/08 00:48:22;;;;;;;57.38;25.27;;;0.90;99.90;;;;;;5067675;28;20028;-94
2023/12/08 00:50:48;;;;;;;54.63;23.92;;;1.00;99.90;;;;;;5064085;28;20021;-93
2023/12/08 00:53:13;;;;;;;49.35;22.80;;;1.00;99.90;;;;;;5057093;28;20108;-93
2023/12/08 00:55:39;;;;;;;47.45;21.67;;;1.00;99.90;;;;;;5056765;28;20574;-94
2023/12/08 00:58:05;;;;;;;53.13;22.67;;;1.00;99.90;;;;;;5065291;28;20085;-93
2023/12/08 01:00:30;;;;;;;47.13;20.70;;;1.00;99.90;;;;;;5061339;28;20040;-92
2023/12/08 01:03:05;;;;;;;41.15;19.58;;;1.00;99.90;;;;;;5055748;28;20021;-93
2023/12/08 01:05:30;;;;;;;51.85;21.85;;;1.00;99.90;;;;;;5052327;28;20496;-95
2023/12/08 01:07:56;;;;;;;51.10;22.08;;;1.00;99.90;;;;;;5056223;28;20005;-94
2023/12/08 01:10:22;;;;;;;58.28;21.98;;;1.00;99.90;;;;;;5050547;28;20033;-94
2023/12/08 01:12:48;;;;;;;49.47;19.95;;;1.00;99.90;;;;;;5062096;28;20036;-93
2023/12/08 01:15:14;;;;;;;58.58;23.33;;;1.00;99.90;;;;;;5058452;28;20029;-93
2023/12/08 01:17:39;;;;;;;60.00;23.00;;;1.00;99.90;;;;;;5057108;28;20025;-93
2023/12/08 01:20:07;;;;;;;54.67;23.20;;;1.00;99.90;;;;;;5056139;28;20013;-94
2023/12/08 01:22:34;;;;;;;54.70;23.17;;;1.00;99.90;;;;;;5060746;28;20026;-92
2023/12/08 01:25:00;;;;;;;62.65;25.70;;;0.90;99.90;;;;;;5056638;28;20044;-92
2023/12/08 01:27:49;;;;;;;47.42;21.08;;;0.80;99.90;;;;;;5056546;28;20085;-93
2023/12/08 01:30:14;;;;;;;53.50;22.38;;;0.90;99.90;;;;;;5061820;28;20053;-93
2023/12/08 01:32:40;;;;;;;48.15;21.95;;;0.80;99.90;;;;;;5058327;28;20037;-94
2023/12/08 01:35:06;;;;;;;60.17;25.10;;;0.90;99.90;;;;;;5055958;28;20047;-92
2023/12/08 01:37:32;;;;;;;56.80;22.50;;;0.80;99.90;;;;;;5053123;28;20017;-93
2023/12/08 01:39:57;;;;;;;59.17;24.27;;;0.80;99.90;;;;;;5051156;28;20083;-93
2023/12/08 01:42:23;;;;;;;54.33;23.35;;;0.80;99.90;;;;;;5056954;28;20009;-94
2023/12/08 01:44:52;;;;;;;60.25;21.33;;;0.80;99.90;;;;;;5062506;28;20002;-93
2023/12/08 01:47:17;;;;;;;53.17;22.27;;;0.90;99.90;;;;;;5053936;28;20024;-94
2023/12/08 01:49:44;;;;;;;47.50;21.50;;;0.90;99.90;;;;;;5057051;28;20705;-94
2023/12/08 01:52:11;;;;;;;49.72;20.10;;;0.90;99.90;;;;;;5062980;28;20005;-95
2023/12/08 01:54:37;;;;;;;43.13;19.50;;;0.90;99.90;;;;;;5068418;28;20022;-93
2023/12/08 01:57:02;;;;;;;42.30;19.55;;;0.90;99.90;;;;;;5060586;28;20080;-92
2023/12/08 01:59:30;;;;;;;45.35;21.17;;;0.90;99.90;;;;;;5060121;28;20021;-93
2023/12/08 02:01:56;;;;;;;46.58;19.98;;;0.90;99.90;;;;;;5056648;28;20033;-93
2023/12/08 02:04:22;;;;;;;47.22;20.85;;;0.90;99.90;;;;;;5063784;28;20532;-94
2023/12/08 02:06:47;;;;;;;44.33;19.73;;;0.90;99.90;;;;;;5059451;28;20005;-94
2023/12/08 02:09:13;;;;;;;42.45;20.08;;;0.90;99.90;;;;;;5055368;28;20052;-94
2023/12/08 02:11:40;;;;;;;40.60;18.75;;;0.90;99.90;;;;;;5057202;28;20021;-94
2023/12/08 02:14:05;;;;;;;35.63;18.60;;;0.80;99.90;;;;;;5053444;28;20026;-92
2023/12/08 02:16:43;;;;;;;40.25;21.50;;;0.80;99.90;;;;;;5059203;28;20009;-93
2023/12/08 02:19:13;;;;;;;37.50;17.80;;;0.90;99.90;;;;;;5061699;28;20226;-92
2023/12/08 02:21:39;;;;;;;33.20;18.38;;;0.90;99.90;;;;;;5063011;28;20274;-93
2023/12/08 02:24:05;;;;;;;33.60;18.52;;;0.90;99.90;;;;;;5053182;28;20025;-92
2023/12/08 02:26:31;;;;;;;35.15;19.38;;;0.80;99.90;;;;;;5064953;28;20043;-93
2023/12/08 02:28:57;;;;;;;33.63;18.88;;;0.90;99.90;;;;;;5058413;28;20160;-93
2023/12/08 02:31:33;;;;;;;31.58;19.35;;;0.90;99.90;;;;;;5052695;28;20056;-94
2023/12/08 02:34:01;;;;;;;32.70;18.40;;;0.90;99.90;;;;;;5062890;28;20025;-92
2023/12/08 02:36:28;;;;;;;31.75;17.65;;;0.90;99.90;;;;;;5054009;28;20021;-93
2023/12/08 02:38:54;;;;;;;34.88;16.50;;;0.90;99.90;;;;;;5052390;28;20030;-94
2023/12/08 02:41:20;;;;;;;31.75;18.25;;;1.00;99.90;;;;;;5052972;28;20013;-93
2023/12/08 02:43:46;;;;;;;31.55;16.77;;;0.90;99.90;;;;;;5062876;28;20033;-91
2023/12/08 02:46:12;;;;;;;38.33;19.30;;;0.90;99.90;;;;;;5061464;28;20030;-92
2023/12/08 02:48:38;;;;;;;39.80;19.40;;;0.90;99.90;;;;;;5057135;28;20447;-93
2023/12/08 02:51:07;;;;;;;42.10;19.27;;;1.00;99.90;;;;;;5063240;28;20056;-92
2023/12/08 02:53:32;;;;;;;30.73;17.30;;;1.00;99.90;;;;;;5050972;28;20112;-92
2023/12/08 02:55:58;;;;;;;38.53;20.02;;;1.10;99.90;;;;;;5054542;28;20018;-92
2023/12/08 02:58:23;;;;;;;36.45;17.83;;;1.10;99.90;;;;;;5061456;28;20021;-94
2023/12/08 03:00:49;;;;;;;36.38;18.30;;;1.10;99.90;;;;;;5056734;28;20083;-94
2023/12/08 03:03:15;;;;;;;34.78;18.52;;;1.10;99.90;;;;;;5062365;28;20092;-94
2023/12/08 03:05:40;;;;;;;33.03;18.25;;;1.10;99.90;;;;;;5071009;28;20009;-94
2023/12/08 03:08:06;;;;;;;39.97;19.00;;;1.00;99.90;;;;;;5060711;28;20064;-93
2023/12/08 03:10:32;;;;;;;38.47;20.63;;;0.90;99.90;;;;;;5062223;28;20059;-93
2023/12/08 03:12:59;;;;;;;36.00;19.75;;;0.90;99.90;;;;;;5054880;28;20022;-95
2023/12/08 03:15:30;;;;;;;34.75;18.38;;;0.90;99.90;;;;;;5047641;28;20016;-93
2023/12/08 03:17:56;;;;;;;32.40;17.80;;;0.90;99.90;;;;;;5058822;28;20084;-95
2023/12/08 03:20:22;;;;;;;32.67;17.70;;;0.90;99.90;;;;;;5062733;28;20036;-94
2023/12/08 03:22:47;;;;;;;34.85;19.48;;;0.90;99.90;;;;;;5062429;28;20032;-93
2023/12/08 03:25:13;;;;;;;31.63;17.33;;;1.00;99.90;;;;;;5054018;28;20017;-93
2023/12/08 03:27:38;;;;;;;29.08;16.23;;;1.00;99.90;;;;;;5055171;28;20009;-93
2023/12/08 03:30:05;;;;;;;32.58;16.15;;;1.00;99.90;;;;;;5062312;28;20041;-93
2023/12/08 03:32:31;;;;;;;34.65;18.17;;;1.00;99.90;;;;;;5061428;28;20025;-93
2023/12/08 03:34:58;;;;;;;29.55;15.98;;;1.10;99.90;;;;;;5052843;28;20111;-94
2023/12/08 03:37:23;;;;;;;29.42;16.20;;;1.10;99.90;;;;;;5052028;28;20021;-94
2023/12/08 03:39:49;;;;;;;33.97;19.10;;;1.10;99.90;;;;;;5051362;28;20237;-94
2023/12/08 03:42:15;;;;;;;42.58;19.05;;;1.10;99.90;;;;;;5061424;28;20073;-93
2023/12/08 03:44:44;;;;;;;44.90;18.90;;;1.10;99.90;;;;;;5052774;28;20037;-93
2023/12/08 03:47:09;;;;;;;34.60;18.08;;;1.10;99.90;;;;;;5059283;28;20059;-92
2023/12/08 03:49:35;;;;;;;32.88;17.30;;;1.20;99.90;;;;;;5049217;28;20017;-93
2023/12/08 03:52:00;;;;;;;35.70;17.92;;;1.20;99.90;;;;;;5051473;28;20052;-94
2023/12/08 03:54:26;;;;;;;42.13;18.92;;;1.20;99.90;;;;;;5062594;28;20121;-93
2023/12/08 03:56:52;;;;;;;43.83;20.75;;;1.10;99.90;;;;;;5055725;28;20021;-93
2023/12/08 03:59:17;;;;;;;43.85;19.85;;;1.10;99.90;;;;;;5052345;28;20037;-92
2023/12/08 04:01:43;;;;;;;45.20;18.85;;;1.10;99.90;;;;;;5055258;28;20032;-93
2023/12/08 04:04:11;;;;;;;44.72;18.83;;;1.10;99.90;;;;;;5058902;28;20117;-92
2023/12/08 04:06:36;;;;;;;48.78;20.75;;;1.10;99.90;;;;;;5058231;28;20005;-94
2023/12/08 04:09:02;;;;;;;43.38;19.38;;;1.10;99.90;;;;;;5053800;28;20036;-93
2023/12/08 04:11:28;;;;;;;47.85;19.58;;;1.10;99.90;;;;;;5052192;28;20021;-94
2023/12/08 04:13:54;;;;;;;43.45;17.95;;;1.10;99.90;;;;;;5050032;28;20034;-94
2023/12/08 04:16:19;;;;;;;48.28;20.92;;;1.20;99.90;;;;;;5051002;28;20057;-95
2023/12/08 04:18:48;;;;;;;48.00;19.13;;;1.20;99.90;;;;;;5050020;28;20047;-93
2023/12/08 04:21:20;;;;;;;44.75;18.95;;;1.20;99.90;;;;;;5047552;28;20028;-93
2023/12/08 04:23:50;;;;;;;47.33;22.23;;;1.20;99.90;;;;;;5054375;28;20033;-94
2023/12/08 04:26:20;;;;;;;43.40;20.42;;;1.20;99.90;;;;;;5057602;28;20024;-96
2023/12/08 04:28:46;;;;;;;40.65;18.63;;;1.20;99.90;;;;;;5042599;28;20209;-93
2023/12/08 04:31:12;;;;;;;45.95;18.90;;;1.20;99.90;;;;;;5045622;28;21390;-94
2023/12/08 04:33:43;;;;;;;44.50;18.77;;;1.20;99.90;;;;;;5056501;28;20025;-93
2023/12/08 04:36:09;;;;;;;38.72;17.33;;;1.20;99.90;;;;;;5055746;28;20024;-93
2023/12/08 04:38:35;;;;;;;38.75;19.05;;;1.30;99.90;;;;;;5049302;28;20005;-92
2023/12/08 04:41:01;;;;;;;42.28;17.45;;;1.30;99.90;;;;;;5050746;28;20086;-94
2023/12/08 04:43:26;;;;;;;40.58;16.55;;;1.30;99.90;;;;;;5056025;28;20027;-95
2023/12/08 04:45:52;;;;;;;39.75;16.75;;;1.30;99.90;;;;;;5053673;28;20090;-94
2023/12/08 04:48:21;;;;;;;39.80;17.60;;;1.30;99.90;;;;;;5034853;28;20037;-94
2023/12/08 04:50:47;;;;;;;36.15;16.63;;;1.30;99.90;;;;;;5042497;28;20056;-93
2023/12/08 04:53:15;;;;;;;42.60;18.92;;;1.30;99.90;;;;;;5037072;28;20105;-95
2023/12/08 04:55:41;;;;;;;35.05;15.98;;;1.30;99.90;;;;;;5047533;28;20036;-94
2023/12/08 04:58:06;;;;;;;36.53;16.92;;;1.30;99.90;;;;;;5044087;28;20033;-94
2023/12/08 05:00:32;;;;;;;35.33;17.23;;;1.30;99.90;;;;;;5046229;28;20029;-94
2023/12/08 05:02:58;;;;;;;42.20;19.30;;;1.30;99.90;;;;;;5052067;28;20071;-95
2023/12/08 05:05:24;;;;;;;43.58;18.30;;;1.30;99.90;;;;;;5042697;28;20026;-92
2023/12/08 05:07:51;;;;;;;36.67;16.63;;;1.30;99.90;;;;;;5041666;28;20221;-96
2023/12/08 05:10:19;;;;;;;35.47;18.65;;;1.30;99.90;;;;;;5064248;28;20036;-95
2023/12/08 05:12:46;;;;;;;38.20;17.02;;;1.30;99.90;;;;;;5049976;28;20064;-95
2023/12/08 05:15:20;;;;;;;37.22;18.15;;;1.30;99.90;;;;;;5053908;28;20093;-93
2023/12/08 05:17:45;;;;;;;43.58;21.05;;;1.30;99.90;;;;;;5054990;28;20049;-95
2023/12/08 05:20:12;;;;;;;47.10;18.60;;;1.30;99.90;;;;;;5048147;28;20064;-94
2023/12/08 05:22:38;;;;;;;43.78;18.08;;;1.30;99.90;;;;;;5055148;28;20017;-91
2023/12/08 05:25:08;;;;;;;39.28;19.15;;;1.30;99.90;;;;;;5055989;28;20025;-93
2023/12/08 05:27:33;;;;;;;34.35;16.45;;;1.30;99.90;;;;;;5051247;28;20104;-94
2023/12/08 05:29:59;;;;;;;37.95;17.65;;;1.30;99.90;;;;;;5054503;28;20033;-93
2023/12/08 05:32:25;;;;;;;38.38;16.83;;;1.30;99.90;;;;;;5051633;28;20029;-93
2023/12/08 05:34:51;;;;;;;37.58;16.70;;;1.30;99.90;;;;;;5045796;28;20033;-91
2023/12/08 05:37:16;;;;;;;36.38;16.27;;;1.30;99.90;;;;;;5051553;28;20039;-93
2023/12/08 05:39:42;;;;;;;38.33;19.13;;;1.30;99.90;;;;;;5056380;28;20025;-91
2023/12/08 05:42:08;;;;;;;36.28;17.42;;;1.30;99.90;;;;;;5045807;28;20033;-93
2023/12/08 05:44:33;;;;;;;34.72;16.92;;;1.30;99.90;;;;;;5049790;28;20079;-93
2023/12/08 05:47:02;;;;;;;37.25;21.45;;;1.30;99.90;;;;;;5065460;28;20388;-93
2023/12/08 05:49:28;;;;;;;45.03;25.13;;;1.30;99.90;;;;;;5051572;28;20520;-92
2023/12/08 05:51:53;;;;;;;36.63;21.80;;;1.30;99.90;;;;;;5039638;28;20039;-93
2023/12/08 05:54:19;;;;;;;40.17;21.35;;;1.30;99.90;;;;;;5046555;28;20056;-93
2023/12/08 05:56:45;;;;;;;34.13;16.55;;;1.30;99.90;;;;;;5052189;28;20028;-90
2023/12/08 05:59:17;;;;;;;40.75;18.60;;;1.40;99.90;;;;;;5047442;28;20036;-91
2023/12/08 06:01:42;;;;;;;36.00;17.45;;;1.30;99.90;;;;;;5045749;28;20113;-93
2023/12/08 06:04:08;;;;;;;35.80;16.67;;;1.40;99.90;;;;;;5046136;28;20588;-91
2023/12/08 06:06:34;;;;;;;31.38;17.98;;;1.50;99.90;;;;;;5045119;28;20017;-91
2023/12/08 06:09:00;;;;;;;36.38;19.17;;;1.40;99.90;;;;;;5052401;28;20032;-93
2023/12/08 06:11:28;;;;;;;37.75;18.70;;;1.50;99.90;;;;;;5038090;28;20442;-92
2023/12/08 06:13:57;;;;;;;33.40;17.58;;;1.50;99.90;;;;;;5044666;28;20029;-91
2023/12/08 06:16:31;;;;;;;34.20;17.65;;;1.50;99.90;;;;;;5063284;28;20486;-92
2023/12/08 06:18:57;;;;;;;29.45;15.77;;;1.50;99.90;;;;;;5041043;28;20041;-92
2023/12/08 06:21:26;;;;;;;38.72;17.25;;;1.50;99.90;;;;;;5039298;28;20029;-94
2023/12/08 06:23:54;;;;;;;30.08;17.38;;;1.50;99.90;;;;;;5043506;28;20192;-93
2023/12/08 06:26:20;;;;;;;33.17;17.48;;;1.50;99.90;;;;;;5047328;28;20017;-94
2023/12/08 06:28:49;;;;;;;36.22;18.58;;;1.50;99.90;;;;;;5044483;28;20075;-92
2023/12/08 06:31:15;;;;;;;37.67;16.63;;;1.60;99.90;;;;;;5052444;28;20047;-92
2023/12/08 06:33:41;;;;;;;33.20;16.42;;;1.60;99.90;;;;;;5044427;28;20017;-92
2023/12/08 06:36:16;;;;;;;32.25;17.38;;;1.60;99.90;;;;;;5061404;28;20021;-91
2023/12/08 06:38:41;;;;;;;36.25;17.75;;;1.50;99.90;;;;;;5052635;28;20017;-91
2023/12/08 06:41:10;;;;;;;27.95;17.17;;;1.60;99.90;;;;;;5056532;28;20050;-91
2023/12/08 06:43:36;;;;;;;47.08;23.02;;;1.60;99.90;;;;;;5056289;28;20025;-92
2023/12/08 06:46:02;;;;;;;50.65;27.63;;;1.60;99.90;;;;;;5044595;28;20028;-92
2023/12/08 06:48:28;;;;;;;40.38;21.92;;;1.60;99.90;;;;;;5045587;28;20026;-92
2023/12/08 06:50:54;;;;;;;53.00;27.85;;;1.60;99.90;;;;;;5039640;28;20033;-93
2023/12/08 06:53:19;;;;;;;40.35;22.48;;;1.60;99.90;;;;;;5053348;28;20029;-92
2023/12/08 06:55:45;;;;;;;41.85;20.88;;;1.70;99.90;;;;;;5043689;28;20024;-92
2023/12/08 06:58:14;;;;;;;44.55;31.70;;;1.70;99.90;;;;;;5045982;28;20039;-91
2023/12/08 07:00:40;;;;;;;36.78;19.33;;;1.70;99.90;;;;;;5055278;28;20021;-91
2023/12/08 07:03:11;;;;;;;38.38;17.42;;;1.70;99.90;;;;;;5048287;28;20491;-92
2023/12/08 07:05:48;;;;;;;38.33;18.85;;;1.70;99.90;;;;;;5050704;28;20040;-94
2023/12/08 07:08:14;;;;;;;32.70;17.38;;;1.70;99.90;;;;;;5045010;28;20089;-92
2023/12/08 07:10:39;;;;;;;36.72;19.02;;;1.60;99.90;;;;;;5042207;28;20064;-93
2023/12/08 07:13:05;;;;;;;31.77;18.50;;;1.60;99.90;;;;;;5049539;28;20059;-93
2023/12/08 07:15:31;;;;;;;37.15;18.58;;;1.70;99.90;;;;;;5048613;28;20048;-92
2023/12/08 07:17:57;;;;;;;35.80;17.40;;;1.60;99.90;;;;;;5047397;28;20033;-92
2023/12/08 07:20:23;;;;;;;29.05;17.13;;;1.70;99.90;;;;;;5041334;28;20402;-96
2023/12/08 07:22:48;;;;;;;36.53;16.70;;;1.70;99.90;;;;;;5043772;28;20067;-92
2023/12/08 07:25:17;;;;;;;36.20;19.40;;;1.70;99.90;;;;;;5050720;28;20017;-93
2023/12/08 07:27:45;;;;;;;34.78;17.55;;;1.70;99.90;;;;;;5032214;28;20042;-91
2023/12/08 07:30:12;;;;;;;36.00;19.83;;;1.70;99.90;;;;;;5048029;28;20029;-93
2023/12/08 07:32:40;;;;;;;36.35;19.00;;;1.70;99.90;;;;;;5047796;28;20046;-91
2023/12/08 07:35:07;;;;;;;34.30;18.55;;;1.80;99.90;;;;;;5053554;28;20106;-92
2023/12/08 07:37:32;;;;;;;33.78;17.33;;;1.80;99.90;;;;;;5046477;28;20048;-92
2023/12/08 07:39:58;;;;;;;36.55;19.63;;;1.80;99.90;;;;;;5033610;28;20021;-93
2023/12/08 07:42:24;;;;;;;36.15;18.10;;;1.80;99.90;;;;;;5047381;28;20025;-91
2023/12/08 07:44:52;;;;;;;31.48;18.95;;;1.70;99.90;;;;;;5050724;28;20013;-93
2023/12/08 07:47:18;;;;;;;35.45;17.88;;;1.80;99.90;;;;;;5043612;28;20022;-93
2023/12/08 07:49:50;;;;;;;31.05;17.17;;;1.80;99.90;;;;;;5050989;28;20085;-91
2023/12/08 07:52:16;;;;;;;40.33;23.02;;;1.80;99.90;;;;;;5044551;28;20470;-92
2023/12/08 07:54:42;;;;;;;31.25;17.33;;;1.80;99.90;;;;;;5059318;28;20029;-91
2023/12/08 07:57:07;;;;;;;33.70;18.33;;;1.90;99.90;;;;;;5053518;28;20029;-92
2023/12/08 07:59:33;;;;;;;32.83;17.33;;;1.90;99.90;;;;;;5060837;28;20496;-93
2023/12/08 08:01:59;;;;;;;36.65;18.80;;;1.90;99.90;;;;;;5043992;28;20029;-92
2023/12/08 08:04:25;;;;;;;34.33;17.75;;;1.90;99.90;;;;;;5044591;28;20036;-92
2023/12/08 08:06:58;;;;;;;38.33;19.90;;;1.90;99.90;;;;;;5057785;28;20014;-92
2023/12/08 08:09:24;;;;;;;35.75;19.15;;;1.90;99.90;;;;;;5056124;28;20025;-92
2023/12/08 08:11:50;;;;;;;32.58;18.27;;;2.00;99.90;;;;;;5054020;28;20609;-92
2023/12/08 08:14:15;;;;;;;34.75;18.45;;;1.90;99.90;;;;;;5046943;28;20052;-95
2023/12/08 08:16:44;;;;;;;29.33;16.75;;;2.00;99.90;;;;;;5056490;28;20055;-90
2023/12/08 08:19:10;;;;;;;30.50;18.10;;;1.90;99.90;;;;;;5046770;28;20030;-92
2023/12/08 08:21:35;;;;;;;30.38;18.35;;;1.90;99.90;;;;;;5047368;28;20025;-92
2023/12/08 08:24:04;;;;;;;27.42;15.23;;;1.90;99.90;;;;;;5046168;28;20022;-92
2023/12/08 08:26:29;;;;;;;28.55;16.58;;;1.90;99.90;;;;;;5042883;28;20017;-92
2023/12/08 08:28:57;;;;;;;30.85;17.90;;;2.00;99.90;;;;;;5050781;28;20033;-92
2023/12/08 08:31:32;;;;;;;;;;;2.00;99.90;;;;;;5042478;28;20021;-94
2023/12/08 08:34:00;;;;;;;26.67;15.75;;;2.00;99.90;;;;;;5051185;28;19908;-92
2023/12/08 08:36:29;;;;;;;38.45;20.58;;;2.00;99.90;;;;;;5026422;28;20017;-92
2023/12/08 08:38:55;;;;;;;35.10;20.50;;;2.10;99.90;;;;;;5035259;28;20025;-92
2023/12/08 08:41:21;;;;;;;30.63;18.67;;;2.10;99.90;;;;;;5041957;28;20033;-92
2023/12/08 08:43:47;;;;;;;35.70;19.38;;;2.10;99.90;;;;;;5047124;28;20021;-91
2023/12/08 08:46:13;;;;;;;35.38;20.35;;;2.10;99.90;;;;;;5044009;28;20388;-92
2023/12/08 08:48:39;;;;;;;31.27;17.50;;;2.10;99.90;;;;;;5056656;28;20021;-92
2023/12/08 08:51:05;;;;;;;32.50;17.70;;;2.00;99.90;;;;;;5051951;28;20026;-93
2023/12/08 08:53:30;;;;;;;30.33;18.50;;;2.00;99.90;;;;;;5040578;28;20037;-92
2023/12/08 08:55:56;;;;;;;31.67;18.98;;;2.10;99.90;;;;;;5050324;28;20162;-92
2023/12/08 08:58:22;;;;;;;26.67;15.07;;;2.10;99.90;;;;;;5056169;28;20043;-92
2023/12/08 09:00:48;;;;;;;32.95;17.83;;;2.10;99.90;;;;;;5052231;28;20025;-93
2023/12/08 09:03:13;;;;;;;35.85;19.50;;;2.10;99.90;;;;;;5054745;28;20028;-93
2023/12/08 09:05:42;;;;;;;38.13;18.88;;;2.10;99.90;;;;;;5057440;28;20071;-93
2023/12/08 09:08:09;;;;;;;37.15;19.33;;;2.10;99.90;;;;;;5044013;28;20677;-92
2023/12/08 09:10:35;;;;;;;39.63;20.15;;;2.20;99.90;;;;;;5043161;28;20029;-92
2023/12/08 09:13:01;;;;;;;35.10;18.73;;;2.20;99.90;;;;;;5056540;28;20029;-90
2023/12/08 09:15:28;;;;;;;32.47;18.15;;;2.20;99.90;;;;;;5048148;28;20272;-93
2023/12/08 09:17:54;;;;;;;42.42;21.42;;;2.20;99.90;;;;;;5049122;28;20029;-92
2023/12/08 09:20:20;;;;;;;38.58;20.15;;;2.20;99.90;;;;;;5052878;28;20072;-93
2023/12/08 09:22:46;;;;;;;34.58;19.27;;;2.30;99.90;;;;;;5051849;28;20038;-92
2023/12/08 09:25:12;;;;;;;40.67;19.65;;;2.30;99.90;;;;;;5045141;28;20108;-94
2023/12/08 09:27:40;;;;;;;36.38;19.35;;;2.30;99.90;;;;;;5053326;28;20504;-92
2023/12/08 09:30:06;;;;;;;37.05;20.95;;;2.30;99.90;;;;;;5053629;28;20029;-92
2023/12/08 09:32:32;;;;;;;39.45;19.23;;;2.40;99.90;;;;;;5043530;28;20607;-91
2023/12/08 09:34:57;;;;;;;34.60;17.00;;;2.30;99.90;;;;;;5034379;28;20113;-91
2023/12/08 09:37:23;;;;;;;37.45;16.52;;;2.40;99.90;;;;;;5049830;28;20035;-92
2023/12/08 09:39:49;;;;;;;36.20;17.88;;;2.50;99.90;;;;;;5045006;28;20034;-93
2023/12/08 09:42:29;;;;;;;35.50;18.17;;;2.50;99.90;;;;;;5053448;28;20028;-92
2023/12/08 09:44:55;;;;;;;33.90;17.65;;;2.60;99.90;;;;;;5052746;28;20057;-93
2023/12/08 09:47:24;;;;;;;37.92;17.77;;;2.60;99.90;;;;;;5055269;28;20105;-93
2023/12/08 09:49:52;;;;;;;32.55;17.30;;;2.60;99.90;;;;;;5051882;28;20041;-92
2023/12/08 09:52:17;;;;;;;34.78;17.27;;;2.70;99.90;;;;;;5057029;28;20029;-92
2023/12/08 09:54:44;;;;;;;35.92;17.63;;;2.70;99.90;;;;;;5057736;28;20026;-94
2023/12/08 09:57:10;;;;;;;39.30;17.42;;;2.80;99.90;;;;;;5049549;28;20022;-94
2023/12/08 09:59:38;;;;;;;35.55;16.25;;;2.80;99.90;;;;;;5050633;28;20021;-91
2023/12/08 10:02:07;;;;;;;34.08;17.25;;;2.80;99.90;;;;;;5034772;28;20026;-91
2023/12/08 10:04:36;;;;;;;31.73;16.77;;;2.80;99.90;;;;;;5023990;28;20464;-92
2023/12/08 10:07:05;;;;;;;32.92;16.50;;;2.80;99.90;;;;;;5047349;28;20017;-93
2023/12/08 10:09:31;;;;;;;34.28;18.80;;;2.80;99.90;;;;;;5053895;28;20043;-91
2023/12/08 10:11:58;;;;;;;32.30;17.27;;;2.90;99.90;;;;;;5063558;28;20028;-92
2023/12/08 10:14:25;;;;;;;31.77;17.48;;;2.90;99.90;;;;;;5064209;28;20021;-92
2023/12/08 10:16:51;;;;;;;31.23;16.58;;;2.90;99.90;;;;;;5058266;28;20052;-92
2023/12/08 10:19:20;;;;;;;33.63;18.42;;;2.90;99.90;;;;;;5044480;28;20042;-93
2023/12/08 10:21:59;;;;;;;37.85;17.63;;;2.90;99.90;;;;;;5053821;28;20021;-92
2023/12/08 10:24:30;;;;;;;32.95;16.88;;;3.00;99.90;;;;;;5050564;28;20029;-91
2023/12/08 10:26:58;;;;;;;38.97;18.85;;;3.00;99.90;;;;;;5061580;28;20169;-91
2023/12/08 10:29:28;;;;;;;38.67;18.58;;;3.10;99.90;;;;;;5052264;28;20021;-93
2023/12/08 10:31:54;;;;;;;34.20;17.02;;;3.10;99.90;;;;;;5043893;28;20027;-92
2023/12/08 10:34:19;;;;;;;34.22;17.17;;;3.10;99.90;;;;;;5051289;28;20033;-92
2023/12/08 10:36:45;;;;;;;31.67;16.85;;;3.10;99.90;;;;;;5045633;28;20036;-92
2023/12/08 10:39:11;;;;;;;29.70;17.10;;;3.20;99.90;;;;;;5054606;28;20056;-93
2023/12/08 10:41:36;;;;;;;30.20;17.60;;;3.20;99.90;;;;;;5051034;28;20060;-91
2023/12/08 10:44:05;;;;;;;32.75;17.92;;;3.30;99.90;;;;;;5053164;28;20040;-92
2023/12/08 10:46:34;;;;;;;36.83;17.60;;;3.40;99.90;;;;;;5059754;28;20032;-93
2023/12/08 10:49:01;;;;;;;34.65;16.85;;;3.40;99.90;;;;;;5046002;28;20025;-93
2023/12/08 10:51:35;;;;;;;32.88;17.52;;;3.40;99.90;;;;;;5047358;28;20031;-92
2023/12/08 10:54:03;;;;;;;30.50;16.45;;;3.40;99.90;;;;;;5046301;28;20032;-92
2023/12/08 10:56:31;;;;;;;33.08;16.92;;;3.50;99.90;;;;;;5034266;28;20029;-93
2023/12/08 10:59:02;;;;;;;32.20;16.10;;;3.50;99.90;;;;;;5047650;28;20029;-92
2023/12/08 11:01:32;;;;;;;36.67;19.02;;;3.50;99.90;;;;;;5042665;28;20033;-93
2023/12/08 11:04:08;;;;;;;33.50;18.42;;;3.60;99.90;;;;;;5041783;28;20029;-92
2023/12/08 11:06:46;;;;;;;28.90;17.52;;;3.60;99.90;;;;;;5035006;28;20463;-92
2023/12/08 11:09:15;;;;;;;32.03;17.17;;;3.70;99.90;;;;;;5050014;28;20064;-93
2023/12/08 11:12:01;;;;;;;37.42;19.67;;;3.70;99.90;;;;;;5051194;28;20476;-94
2023/12/08 11:14:41;;;;;;;32.42;16.73;;;3.80;99.90;;;;;;5035670;28;20087;-93
2023/12/08 11:17:33;;;;;;;35.85;19.05;;;3.90;99.90;;;;;;5051308;28;20037;-92
2023/12/08 11:20:02;;;;;;;36.47;19.55;;;3.90;99.90;;;;;;5039013;28;20045;-93
2023/12/08 11:22:28;;;;;;;35.80;19.23;;;3.90;99.90;;;;;;5022263;28;20022;-92
2023/12/08 11:24:58;;;;;;;33.47;18.92;;;3.90;99.90;;;;;;5050542;28;20090;-91
2023/12/08 11:27:50;;;;;;;33.13;19.05;;;3.90;99.90;;;;;;5035099;28;20018;-90
2023/12/08 11:30:43;;;;;;;31.00;18.63;;;3.90;99.90;;;;;;5040403;28;20029;-93
2023/12/08 11:33:42;;;;;;;35.72;18.45;;;3.90;99.90;;;;;;5041384;28;20452;-92
2023/12/08 11:36:09;;;;;;;34.85;20.23;;;4.00;99.90;;;;;;5048767;28;20037;-92
2023/12/08 11:38:38;;;;;;;36.47;20.05;;;4.00;99.90;;;;;;5041610;28;20091;-92
2023/12/08 11:41:15;;;;;;;34.45;20.40;;;4.00;99.90;;;;;;5040731;28;20036;-92
2023/12/08 11:43:47;;;;;;;37.90;20.83;;;4.00;99.90;;;;;;5049003;28;20021;-92
2023/12/08 11:46:14;;;;;;;36.42;19.25;;;4.10;99.90;;;;;;5051796;28;20484;-92
2023/12/08 11:48:42;;;;;;;35.13;19.20;;;4.10;99.90;;;;;;5044245;28;20026;-92
2023/12/08 11:51:10;;;;;;;37.58;20.05;;;4.10;99.90;;;;;;5044492;28;20029;-93
2023/12/08 11:54:06;;;;;;;34.80;20.48;;;4.00;99.90;;;;;;5057315;28;20095;-91
2023/12/08 11:56:38;;;;;;;37.00;19.80;;;4.00;99.90;;;;;;5049302;28;20145;-92
2023/12/08 11:59:05;;;;;;;38.97;19.38;;;4.00;99.90;;;;;;5050379;28;20060;-91
2023/12/08 12:01:30;;;;;;;37.00;18.10;;;4.00;99.90;;;;;;5054921;28;20025;-92
2023/12/08 12:04:10;;;;;;;34.03;17.98;;;4.00;99.90;;;;;;5087251;28;20383;-93
2023/12/08 12:06:36;;;;;;;37.55;20.20;;;4.10;99.90;;;;;;5069081;28;20025;-92
2023/12/08 12:09:06;;;;;;;41.70;21.15;;;4.10;99.90;;;;;;5070340;28;20048;-94
2023/12/08 12:11:36;;;;;;;37.70;19.45;;;4.10;99.90;;;;;;5066996;28;20032;-92
2023/12/08 12:14:05;;;;;;;35.05;18.30;;;4.10;99.90;;;;;;5066791;28;20037;-91
2023/12/08 12:16:30;;;;;;;38.47;18.48;;;4.20;99.90;;;;;;5070238;28;20446;-93
2023/12/08 12:18:56;;;;;;;29.88;16.05;;;4.30;99.90;;;;;;5073551;28;20025;-92
2023/12/08 12:21:22;;;;;;;40.25;22.50;;;4.30;99.90;;;;;;5065081;28;20425;-94
2023/12/08 12:23:48;;;;;;;36.33;18.58;;;4.50;99.90;;;;;;5076049;28;20512;-93
2023/12/08 12:26:20;;;;;;;42.08;20.00;;;4.50;99.90;;;;;;5058253;28;20017;-93
2023/12/08 12:28:49;;;;;;;41.05;20.67;;;4.50;99.90;;;;;;5061699;28;20096;-91
2023/12/08 12:31:18;;;;;;;39.22;19.40;;;4.50;99.90;;;;;;5078255;28;20123;-92
2023/12/08 12:33:44;;;;;;;43.13;20.50;;;4.40;99.90;;;;;;5071563;28;20028;-93
2023/12/08 12:36:11;;;;;;;39.50;22.30;;;4.40;99.90;;;;;;5074877;28;20080;-93
2023/12/08 12:38:42;;;;;;;39.42;19.25;;;4.50;99.90;;;;;;5073188;28;20019;-93
2023/12/08 12:41:22;;;;;;;41.92;21.35;;;4.50;99.90;;;;;;5075372;28;20120;-92